createdAt,value
2023-04-29T00:01:25.884Z,99995.81
2023-04-29T00:03:53.501Z,99997.31
2023-04-29T00:06:20.537Z,99992.72
2023-04-29T00:08:47.473Z,99990.44
2023-04-29T00:11:14.550Z,99991.28
2023-04-29T00:13:41.527Z,99992.41
2023-04-29T00:16:12.177Z,99993.69
2023-04-29T00:18:39.362Z,99998.44
2023-04-29T00:21:06.388Z,100001.97
2023-04-29T00:23:34.444Z,100003.13
2023-04-29T00:26:01.437Z,100005.25
2023-04-29T00:28:29.540Z,99999.25
2023-04-29T00:30:56.607Z,100000.56
2023-04-29T00:33:23.691Z,99993.72
2023-04-29T00:35:50.983Z,99999.38
2023-04-29T00:38:17.933Z,99986.22
2023-04-29T00:40:45.115Z,99993.03
2023-04-29T00:43:12.282Z,99996.78
2023-04-29T00:45:39.468Z,99995.03
2023-04-29T00:48:06.787Z,99999.06
2023-04-29T00:50:34.170Z,99998.75
2023-04-29T00:53:01.414Z,100006.56
2023-04-29T00:55:29.034Z,100007.38
2023-04-29T00:57:57.184Z,100015.56
2023-04-29T01:00:24.966Z,100012.94
2023-04-29T01:02:55.099Z,100004.44
2023-04-29T01:05:22.030Z,100008.06
2023-04-29T01:07:57.607Z,100014.88
2023-04-29T01:10:30.337Z,100011.94
2023-04-29T01:13:31.033Z,100011.75
2023-04-29T01:16:04.202Z,100013.56
2023-04-29T01:18:37.710Z,100011.63
2023-04-29T01:21:04.706Z,100016.88
2023-04-29T01:23:31.861Z,100011.50
2023-04-29T01:25:59.124Z,100010.97
2023-04-29T01:28:43.588Z,100026.66
2023-04-29T01:31:27.233Z,100009.69
2023-04-29T01:34:14.833Z,100014.25
2023-04-29T01:37:05.373Z,100017.00
2023-04-29T01:39:58.413Z,100012.75
2023-04-29T01:42:40.550Z,100012.06
2023-04-29T01:45:11.137Z,100019.28
2023-04-29T01:47:39.278Z,100018.63
2023-04-29T01:50:07.039Z,100015.84
2023-04-29T01:52:34.017Z,100015.03
2023-04-29T01:55:01.003Z,100010.19
2023-04-29T01:57:27.922Z,100010.84
2023-04-29T01:59:55.380Z,100004.94
2023-04-29T02:02:23.546Z,100004.13
2023-04-29T02:04:50.754Z,100005.44
2023-04-29T02:07:18.028Z,100011.59
2023-04-29T02:09:44.898Z,100009.16
2023-04-29T02:12:11.830Z,100020.06
2023-04-29T02:14:38.800Z,100009.31
2023-04-29T02:17:05.744Z,100009.63
2023-04-29T02:19:32.649Z,100011.94
2023-04-29T02:21:59.599Z,100011.59
2023-04-29T02:24:26.853Z,100019.78
2023-04-29T02:26:53.913Z,100016.88
2023-04-29T02:29:20.847Z,100022.69
2023-04-29T02:31:47.880Z,100027.44
2023-04-29T02:34:14.832Z,100034.13
2023-04-29T02:36:41.717Z,100037.72
2023-04-29T02:39:08.599Z,100037.56
2023-04-29T02:41:36.605Z,100043.13
2023-04-29T02:44:03.968Z,100039.72
2023-04-29T02:46:33.424Z,100046.06
2023-04-29T02:49:01.075Z,100044.59
2023-04-29T02:51:29.093Z,100051.47
2023-04-29T02:53:56.345Z,100041.66
2023-04-29T02:56:23.449Z,100052.28
2023-04-29T02:58:50.379Z,100055.03
2023-04-29T03:01:17.329Z,100055.69
2023-04-29T03:03:44.701Z,100052.94
2023-04-29T03:06:11.945Z,100055.34
2023-04-29T03:08:38.843Z,100058.97
2023-04-29T03:11:05.808Z,100047.69
2023-04-29T03:13:32.831Z,100053.38
2023-04-29T03:16:00.646Z,100050.44
2023-04-29T03:18:28.226Z,100046.84
2023-04-29T03:20:55.131Z,100048.47
2023-04-29T03:23:22.524Z,100050.81
2023-04-29T03:25:49.987Z,100053.56
2023-04-29T03:28:16.985Z,100056.31
2023-04-29T03:30:43.861Z,100062.66
2023-04-29T03:33:10.853Z,100060.38
2023-04-29T03:35:37.753Z,100058.91
2023-04-29T03:38:04.670Z,100058.25
2023-04-29T03:40:31.637Z,100063.81
2023-04-29T03:42:58.558Z,100062.47
2023-04-29T03:45:25.565Z,100052.06
2023-04-29T03:47:53.405Z,100055.63
2023-04-29T03:50:20.459Z,100063.94
2023-04-29T03:52:47.539Z,100062.97
2023-04-29T03:55:14.460Z,100063.91
2023-04-29T03:57:42.559Z,100069.03
2023-04-29T04:00:10.354Z,100073.53
2023-04-29T04:02:37.605Z,100071.88
2023-04-29T04:05:05.022Z,100068.78
2023-04-29T04:07:31.886Z,100072.53
2023-04-29T04:09:58.822Z,100071.53
2023-04-29T04:12:25.702Z,100074.16
2023-04-29T04:14:53.048Z,100072.84
2023-04-29T04:17:20.396Z,100076.47
2023-04-29T04:19:47.341Z,100075.78
2023-04-29T04:22:14.314Z,100083.72
2023-04-29T04:24:41.280Z,100088.38
2023-04-29T04:27:08.190Z,100091.97
2023-04-29T04:29:35.337Z,100091.28
2023-04-29T04:32:02.791Z,100095.94
2023-04-29T04:34:29.791Z,100093.22
2023-04-29T04:36:56.737Z,100104.78
2023-04-29T04:39:23.828Z,100108.13
2023-04-29T04:41:50.767Z,100119.94
2023-04-29T04:44:17.671Z,100126.13
2023-04-29T04:46:44.710Z,100125.69
2023-04-29T04:49:11.595Z,100126.41
2023-04-29T04:51:38.521Z,100129.41
2023-04-29T04:54:05.622Z,100124.84
2023-04-29T04:56:32.658Z,100129.75
2023-04-29T04:58:59.541Z,100125.53
2023-04-29T05:01:26.480Z,100124.91
2023-04-29T05:03:53.510Z,100132.91
2023-04-29T05:06:20.498Z,100132.09
2023-04-29T05:08:47.557Z,100139.91
2023-04-29T05:11:22.320Z,100141.69
2023-04-29T05:13:49.581Z,100142.00
2023-04-29T05:16:18.102Z,100144.81
2023-04-29T05:18:46.577Z,100147.06
2023-04-29T05:21:14.577Z,100146.28
2023-04-29T05:23:43.458Z,100152.97
2023-04-29T05:26:10.471Z,100148.75
2023-04-29T05:28:37.408Z,100149.53
2023-04-29T05:31:04.455Z,100149.88
2023-04-29T05:33:31.391Z,100153.31
2023-04-29T05:35:58.275Z,100154.28
2023-04-29T05:38:28.933Z,100154.28
2023-04-29T05:40:56.603Z,100152.28
2023-04-29T05:43:24.019Z,100162.44
2023-04-29T05:45:51.842Z,100163.59
2023-04-29T05:48:20.002Z,100169.13
2023-04-29T05:50:48.250Z,100175.66
2023-04-29T05:53:15.344Z,100178.09
2023-04-29T05:55:45.069Z,100176.25
2023-04-29T05:58:13.264Z,100179.97
2023-04-29T06:00:40.824Z,100195.53
2023-04-29T06:03:08.039Z,100189.31
2023-04-29T06:05:35.573Z,100184.81
2023-04-29T06:08:03.922Z,100193.97
2023-04-29T06:10:30.792Z,100202.00
2023-04-29T06:12:57.664Z,100208.38
2023-04-29T06:15:24.713Z,100209.69
2023-04-29T06:17:52.230Z,100205.94
2023-04-29T06:20:19.748Z,100203.81
2023-04-29T06:22:47.521Z,100205.72
2023-04-29T06:25:14.720Z,100204.53
2023-04-29T06:27:41.637Z,100204.66
2023-04-29T06:30:09.314Z,100219.94
2023-04-29T06:32:39.284Z,100210.69
2023-04-29T06:35:06.975Z,100201.53
2023-04-29T06:37:35.314Z,100209.91
2023-04-29T06:40:04.913Z,100219.38
2023-04-29T06:42:31.862Z,100209.16
2023-04-29T06:44:58.895Z,100213.28
2023-04-29T06:47:25.885Z,100213.16
2023-04-29T06:49:53.501Z,100217.38
2023-04-29T06:52:20.641Z,100227.38
2023-04-29T06:54:47.622Z,100222.25
2023-04-29T06:57:14.582Z,100219.69
2023-04-29T06:59:41.556Z,100223.38
2023-04-29T07:02:08.443Z,100215.16
2023-04-29T07:04:37.540Z,100229.09
2023-04-29T07:07:04.557Z,100222.16
2023-04-29T07:09:31.781Z,100236.38
2023-04-29T07:11:58.698Z,100232.25
2023-04-29T07:14:25.732Z,100229.13
2023-04-29T07:16:55.961Z,100228.00
2023-04-29T07:19:23.052Z,100246.03
2023-04-29T07:21:50.064Z,100243.72
2023-04-29T07:24:17.719Z,100252.75
2023-04-29T07:26:45.464Z,100248.94
2023-04-29T07:29:12.488Z,100254.09
2023-04-29T07:31:39.388Z,100268.50
2023-04-29T07:34:06.354Z,100265.81
2023-04-29T07:36:33.340Z,100265.47
2023-04-29T07:39:00.373Z,100275.59
2023-04-29T07:41:28.431Z,100272.44
2023-04-29T07:43:55.485Z,100276.34
2023-04-29T07:46:22.464Z,100278.97
2023-04-29T07:48:49.489Z,100284.47
2023-04-29T07:51:16.429Z,100285.66
2023-04-29T07:53:43.582Z,100284.41
2023-04-29T07:56:10.797Z,100289.47
2023-04-29T07:58:37.846Z,100293.09
2023-04-29T08:01:12.290Z,100298.16
2023-04-29T08:03:41.635Z,100293.19
2023-04-29T08:06:09.055Z,100289.81
2023-04-29T08:08:36.332Z,100289.91
2023-04-29T08:11:03.584Z,100292.97
2023-04-29T08:13:30.566Z,100293.56
2023-04-29T08:15:57.522Z,100286.94
2023-04-29T08:18:24.468Z,100282.69
2023-04-29T08:20:51.590Z,100285.28
2023-04-29T08:23:18.525Z,100279.94
2023-04-29T08:25:45.651Z,100281.97
2023-04-29T08:28:13.063Z,100287.91
2023-04-29T08:30:43.129Z,100291.78
2023-04-29T08:33:10.230Z,100288.97
2023-04-29T08:35:37.671Z,100299.47
2023-04-29T08:38:06.799Z,100314.50
2023-04-29T08:40:51.926Z,100315.38
2023-04-29T08:43:20.476Z,100339.03
2023-04-29T08:45:49.708Z,100334.09
2023-04-29T08:48:17.890Z,100323.25
2023-04-29T08:50:45.679Z,100339.19
2023-04-29T08:53:14.367Z,100326.69
2023-04-29T08:55:50.427Z,100326.44
2023-04-29T08:58:17.643Z,100332.41
2023-04-29T09:00:45.381Z,100334.38
2023-04-29T09:03:25.914Z,100330.13
2023-04-29T09:05:59.725Z,100325.09
2023-04-29T09:08:27.712Z,100327.06
2023-04-29T09:10:55.085Z,100313.94
2023-04-29T09:13:31.491Z,100334.03
2023-04-29T09:15:58.978Z,100351.84
2023-04-29T09:18:50.490Z,100359.59
2023-04-29T09:21:27.289Z,100377.31
2023-04-29T09:23:59.871Z,100376.59
2023-04-29T09:26:27.893Z,100391.16
2023-04-29T09:29:14.137Z,100387.72
2023-04-29T09:31:42.239Z,100384.44
2023-04-29T09:34:09.917Z,100383.81
2023-04-29T09:36:38.536Z,100380.34
2023-04-29T09:39:12.641Z,100392.13
2023-04-29T09:41:59.390Z,100393.09
2023-04-29T09:44:34.526Z,100388.53
2023-04-29T09:47:05.584Z,100393.09
2023-04-29T09:49:38.426Z,100390.78
2023-04-29T09:52:13.526Z,100390.16
2023-04-29T09:54:42.489Z,100376.09
2023-04-29T09:57:11.845Z,100388.22
2023-04-29T09:59:40.850Z,100380.53
2023-04-29T10:02:16.038Z,100388.69
2023-04-29T10:04:46.525Z,100388.38
2023-04-29T10:07:18.095Z,100382.81
2023-04-29T10:09:50.585Z,100383.78
2023-04-29T10:12:20.320Z,100400.78
2023-04-29T10:15:24.106Z,100392.13
2023-04-29T10:17:58.602Z,100395.41
2023-04-29T10:20:26.373Z,100394.75
2023-04-29T10:22:56.418Z,100393.75
2023-04-29T10:25:24.990Z,100391.94
2023-04-29T10:27:53.731Z,100385.59
2023-04-29T10:30:22.701Z,100381.66
2023-04-29T10:32:52.422Z,100392.13
2023-04-29T10:35:25.863Z,100395.88
2023-04-29T10:37:54.353Z,100392.63
2023-04-29T10:40:27.143Z,100381.50
2023-04-29T10:42:55.630Z,100389.81
2023-04-29T10:45:26.869Z,100386.25
2023-04-29T10:48:03.140Z,100389.16
2023-04-29T10:50:51.918Z,100390.16
2023-04-29T10:53:20.245Z,100387.22
2023-04-29T10:56:06.406Z,100386.88
2023-04-29T10:58:46.755Z,100392.13
2023-04-29T11:01:17.926Z,100393.09
2023-04-29T11:04:01.993Z,100382.63
2023-04-29T11:06:35.061Z,100378.41
2023-04-29T11:09:26.448Z,100387.88
2023-04-29T11:11:57.969Z,100356.94
2023-04-29T11:14:32.605Z,100360.25
2023-04-29T11:17:03.014Z,100366.91
2023-04-29T11:19:49.035Z,100358.63
2023-04-29T11:22:26.853Z,100358.16
2023-04-29T11:25:02.124Z,100360.25
2023-04-29T11:27:38.096Z,100352.06
2023-04-29T11:30:07.716Z,100359.97
2023-04-29T11:32:38.604Z,100362.72
2023-04-29T11:35:16.325Z,100370.25
2023-04-29T11:37:45.803Z,100371.19
2023-04-29T11:40:14.319Z,100373.47
2023-04-29T11:42:45.684Z,100370.69
2023-04-29T11:45:13.203Z,100379.50
2023-04-29T11:47:47.362Z,100384.75
2023-04-29T11:50:17.807Z,100387.72
2023-04-29T11:52:47.756Z,100379.22
2023-04-29T11:55:14.888Z,100368.28
2023-04-29T11:57:42.000Z,100363.59
2023-04-29T12:00:14.197Z,100384.53
2023-04-29T12:02:46.488Z,100379.69
2023-04-29T12:05:16.022Z,100390.34
2023-04-29T12:07:43.838Z,100386.66
2023-04-29T12:10:12.114Z,100386.94
2023-04-29T12:12:42.396Z,100375.44
2023-04-29T12:15:10.808Z,100376.22
2023-04-29T12:17:38.640Z,100371.81
2023-04-29T12:20:09.236Z,100370.22
2023-04-29T12:22:36.413Z,100365.84
2023-04-29T12:25:07.932Z,100376.47
2023-04-29T12:27:36.866Z,100376.50
2023-04-29T12:30:09.575Z,100386.19
2023-04-29T12:32:37.318Z,100379.44
2023-04-29T12:35:04.715Z,100388.44
2023-04-29T12:37:31.704Z,100376.06
2023-04-29T12:39:58.631Z,100376.50
2023-04-29T12:42:34.124Z,100379.66
2023-04-29T12:45:01.168Z,100378.88
2023-04-29T12:47:37.234Z,100400.00
2023-04-29T12:50:07.142Z,100388.09
2023-04-29T12:52:36.415Z,100391.16
2023-04-29T12:55:04.672Z,100412.19
2023-04-29T12:57:31.628Z,100406.69
2023-04-29T12:59:58.573Z,100409.59
2023-04-29T13:04:53.287Z,100422.22
2023-04-29T13:07:21.041Z,100411.09
2023-04-29T13:09:48.049Z,100411.41
2023-04-29T13:12:14.941Z,100423.50
2023-04-29T13:14:41.854Z,100424.84
2023-04-29T13:17:10.599Z,100434.34
2023-04-29T13:19:50.280Z,100437.44
2023-04-29T13:22:18.782Z,100425.16
2023-04-29T13:24:46.684Z,100435.94
2023-04-29T13:27:13.772Z,100447.72
2023-04-29T13:29:40.743Z,100451.63
2023-04-29T13:32:08.794Z,100443.31
2023-04-29T13:34:36.149Z,100442.31
2023-04-29T13:37:03.142Z,100440.34
2023-04-29T13:39:30.178Z,100439.38
2023-04-29T13:41:59.169Z,100450.94
2023-04-29T13:44:34.298Z,100449.50
2023-04-29T13:47:06.835Z,100448.38
2023-04-29T13:52:55.640Z,100453.59
2023-04-29T13:55:21.524Z,100447.69
2023-04-29T14:00:25.455Z,100433.47
2023-04-29T14:05:26.483Z,100453.75
2023-04-29T14:07:53.669Z,100442.78
2023-04-29T14:10:20.675Z,100443.44
2023-04-29T14:12:48.685Z,100458.47
2023-04-29T14:15:16.359Z,100469.59
2023-04-29T14:17:43.412Z,100468.47
2023-04-29T14:20:10.874Z,100463.72
2023-04-29T14:22:37.775Z,100469.13
2023-04-29T14:25:05.284Z,100475.97
2023-04-29T14:27:32.236Z,100470.59
2023-04-29T14:29:59.134Z,100478.44
2023-04-29T14:32:26.143Z,100476.13
2023-04-29T14:34:53.501Z,100471.59
2023-04-29T14:37:20.645Z,100470.28
2023-04-29T14:39:47.564Z,100474.19
2023-04-29T14:42:15.088Z,100467.19
2023-04-29T14:44:42.033Z,100470.78
2023-04-29T14:47:09.445Z,100480.44
2023-04-29T14:49:36.438Z,100477.97
2023-04-29T14:52:03.821Z,100478.47
2023-04-29T14:54:31.187Z,100479.13
2023-04-29T14:56:58.086Z,100490.41
2023-04-29T14:59:25.093Z,100495.78
2023-04-29T15:01:52.029Z,100489.72
2023-04-29T15:04:18.967Z,100484.63
2023-04-29T15:06:45.980Z,100485.00
2023-04-29T15:09:13.302Z,100482.41
2023-04-29T15:11:41.307Z,100474.69
2023-04-29T15:14:08.315Z,100462.59
2023-04-29T15:16:36.341Z,100470.44
2023-04-29T15:19:03.275Z,100485.31
2023-04-29T15:21:30.266Z,100492.53
2023-04-29T15:23:57.391Z,100481.72
2023-04-29T15:26:24.442Z,100490.09
2023-04-29T15:28:51.341Z,100485.72
2023-04-29T15:31:18.713Z,100478.50
2023-04-29T15:33:46.149Z,100491.09
2023-04-29T15:36:13.322Z,100502.34
2023-04-29T15:38:40.370Z,100488.75
2023-04-29T15:41:07.301Z,100493.84
2023-04-29T15:43:34.354Z,100497.44
2023-04-29T15:46:01.401Z,100491.56
2023-04-29T15:48:28.358Z,100498.09
2023-04-29T15:50:55.373Z,100491.03
2023-04-29T15:53:24.251Z,100495.97
2023-04-29T15:55:51.767Z,100503.66
2023-04-29T15:58:18.751Z,100499.75
2023-04-29T16:00:46.749Z,100499.09
2023-04-29T16:03:13.784Z,100494.53
2023-04-29T16:05:40.812Z,100499.38
2023-04-29T16:08:07.726Z,100489.19
2023-04-29T16:10:34.813Z,100481.06
2023-04-29T16:13:01.772Z,100469.66
2023-04-29T16:15:29.622Z,100467.91
2023-04-29T16:17:56.770Z,100465.84
2023-04-29T16:20:23.712Z,100473.75
2023-04-29T16:22:50.695Z,100471.66
2023-04-29T16:25:17.748Z,100487.16
2023-04-29T16:27:44.719Z,100475.63
2023-04-29T16:30:12.070Z,100475.50
2023-04-29T16:32:41.493Z,100474.50
2023-04-29T16:35:11.791Z,100484.47
2023-04-29T16:37:39.139Z,100486.50
2023-04-29T16:40:07.209Z,100485.19
2023-04-29T16:42:34.090Z,100486.34
2023-04-29T16:45:00.980Z,100486.69
2023-04-29T16:47:27.906Z,100484.72
2023-04-29T16:49:55.888Z,100473.94
2023-04-29T16:52:23.212Z,100478.81
2023-04-29T16:54:50.276Z,100494.88
2023-04-29T16:57:17.399Z,100488.97
2023-04-29T16:59:44.270Z,100498.09
2023-04-29T17:02:11.370Z,100487.44
2023-04-29T17:04:38.408Z,100487.94
2023-04-29T17:07:05.800Z,100488.97
2023-04-29T17:09:32.738Z,100488.31
2023-04-29T17:11:59.687Z,100491.41
2023-04-29T17:14:26.830Z,100489.63
2023-04-29T17:16:53.880Z,100501.72
2023-04-29T17:19:20.865Z,100506.00
2023-04-29T17:21:48.399Z,100505.13
2023-04-29T17:24:17.006Z,100487.31
2023-04-29T17:26:43.896Z,100504.47
2023-04-29T17:29:12.460Z,100511.31
2023-04-29T17:31:45.341Z,100515.41
2023-04-29T17:34:18.716Z,100512.97
2023-04-29T17:36:47.487Z,100509.69
2023-04-29T17:39:14.696Z,100514.44
2023-04-29T17:41:42.147Z,100511.47
2023-04-29T17:44:10.239Z,100525.88
2023-04-29T17:46:38.554Z,100527.66
2023-04-29T17:49:05.705Z,100533.69
2023-04-29T17:51:35.142Z,100533.53
2023-04-29T17:54:05.467Z,100531.38
2023-04-29T17:56:34.789Z,100541.31
2023-04-29T17:59:03.617Z,100540.16
2023-04-29T18:01:30.741Z,100541.81
2023-04-29T18:03:57.684Z,100548.66
2023-04-29T18:06:24.816Z,100544.22
2023-04-29T18:08:51.801Z,100532.94
2023-04-29T18:11:18.695Z,100533.63
2023-04-29T18:13:45.632Z,100536.50
2023-04-29T18:16:12.743Z,100532.28
2023-04-29T18:18:39.707Z,100528.19
2023-04-29T18:21:06.716Z,100530.41
2023-04-29T18:23:34.236Z,100538.41
2023-04-29T18:26:01.277Z,100549.78
2023-04-29T18:28:29.322Z,100550.94
2023-04-29T18:30:57.027Z,100558.84
2023-04-29T18:33:26.377Z,100566.88
2023-04-29T18:35:54.671Z,100559.84
2023-04-29T18:38:21.785Z,100560.25
2023-04-29T18:40:48.932Z,100564.06
2023-04-29T18:43:18.135Z,100569.50
2023-04-29T18:45:45.831Z,100565.03
2023-04-29T18:48:13.028Z,100564.50
2023-04-29T18:50:42.486Z,100557.25
2023-04-29T18:53:09.469Z,100567.19
2023-04-29T18:55:36.527Z,100573.31
2023-04-29T18:58:03.508Z,100580.19
2023-04-29T19:00:30.563Z,100578.22
2023-04-29T19:02:57.797Z,100581.00
2023-04-29T19:05:24.778Z,100578.19
2023-04-29T19:07:51.671Z,100590.19
2023-04-29T19:10:18.772Z,100591.84
2023-04-29T19:12:46.236Z,100599.75
2023-04-29T19:15:13.388Z,100605.16
2023-04-29T19:17:40.290Z,100606.91
2023-04-29T19:20:08.243Z,100606.78
2023-04-29T19:22:35.154Z,100603.13
2023-04-29T19:25:02.308Z,100616.78
2023-04-29T19:27:29.278Z,100615.13
2023-04-29T19:29:56.498Z,100614.31
2023-04-29T19:32:23.778Z,100617.66
2023-04-29T19:34:50.751Z,100615.13
2023-04-29T19:37:17.716Z,100609.16
2023-04-29T19:39:44.663Z,100606.84
2023-04-29T19:42:12.442Z,100620.97
2023-04-29T19:44:39.424Z,100619.50
2023-04-29T19:47:06.485Z,100618.81
2023-04-29T19:49:33.905Z,100618.63
2023-04-29T19:52:02.124Z,100622.41
2023-04-29T19:54:29.215Z,100618.16
2023-04-29T19:56:56.224Z,100622.19
2023-04-29T19:59:23.188Z,100623.72
2023-04-29T20:01:51.394Z,100615.19
2023-04-29T20:04:18.391Z,100618.75
2023-04-29T20:06:45.355Z,100617.63
2023-04-29T20:09:12.505Z,100613.41
2023-04-29T20:11:39.520Z,100622.09
2023-04-29T20:14:06.419Z,100624.25
2023-04-29T20:16:35.349Z,100627.53
2023-04-29T20:19:02.341Z,100626.91
2023-04-29T20:21:29.236Z,100630.09
2023-04-29T20:23:56.317Z,100632.03
2023-04-29T20:26:23.317Z,100633.44
2023-04-29T20:28:50.316Z,100633.97
2023-04-29T20:31:17.173Z,100644.44
2023-04-29T20:33:44.092Z,100641.53
2023-04-29T20:36:11.102Z,100637.13
2023-04-29T20:38:38.000Z,100642.50
2023-04-29T20:41:07.995Z,100638.66
2023-04-29T20:43:35.189Z,100639.22
2023-04-29T20:46:03.015Z,100647.06
2023-04-29T20:48:30.081Z,100642.56
2023-04-29T20:50:56.955Z,100649.97
2023-04-29T20:53:23.878Z,100639.22
2023-04-29T20:55:50.880Z,100642.63
2023-04-29T20:58:17.938Z,100639.41
2023-04-29T21:00:45.861Z,100638.94
2023-04-29T21:03:12.801Z,100650.25
2023-04-29T21:05:39.661Z,100654.69
2023-04-29T21:08:06.671Z,100663.66
2023-04-29T21:10:33.706Z,100661.56
2023-04-29T21:13:00.767Z,100657.47
2023-04-29T21:15:29.260Z,100657.66
2023-04-29T21:17:56.801Z,100657.44
2023-04-29T21:20:24.095Z,100660.34
2023-04-29T21:22:51.385Z,100661.88
2023-04-29T21:25:18.609Z,100653.66
2023-04-29T21:27:45.637Z,100646.72
2023-04-29T21:30:13.216Z,100656.72
2023-04-29T21:32:40.462Z,100645.25
2023-04-29T21:35:08.279Z,100654.69
2023-04-29T21:37:35.229Z,100653.09
2023-04-29T21:40:04.149Z,100645.53
2023-04-29T21:42:31.937Z,100654.19
2023-04-29T21:45:03.390Z,100650.19
2023-04-29T21:47:30.828Z,100657.91
2023-04-29T21:49:58.017Z,100644.69
2023-04-29T21:52:25.622Z,100662.16
2023-04-29T21:54:52.606Z,100661.06
2023-04-29T21:57:26.362Z,100662.97
2023-04-29T21:59:59.132Z,100660.16
2023-04-29T22:02:27.695Z,100665.63
2023-04-29T22:04:54.929Z,100668.22
2023-04-29T22:07:22.994Z,100661.66
2023-04-29T22:09:50.009Z,100665.22
2023-04-29T22:12:20.587Z,100661.66
2023-04-29T22:14:47.766Z,100670.00
2023-04-29T22:17:14.923Z,100670.97
2023-04-29T22:19:41.839Z,100668.53
2023-04-29T22:22:09.361Z,100664.03
2023-04-29T22:24:36.264Z,100662.78
2023-04-29T22:27:03.712Z,100670.22
2023-04-29T22:29:30.759Z,100667.59
2023-04-29T22:31:57.737Z,100668.94
2023-04-29T22:34:24.801Z,100668.66
2023-04-29T22:36:51.669Z,100662.47
2023-04-29T22:39:18.722Z,100668.13
2023-04-29T22:41:45.693Z,100668.78
2023-04-29T22:44:12.679Z,100671.84
2023-04-29T22:46:39.637Z,100670.72
2023-04-29T22:49:06.599Z,100675.56
2023-04-29T22:51:33.470Z,100676.50
2023-04-29T22:54:00.556Z,100679.38
2023-04-29T22:56:28.850Z,100667.44
2023-04-29T22:58:55.995Z,100677.50
2023-04-29T23:01:22.976Z,100671.69
2023-04-29T23:03:49.986Z,100667.72
2023-04-29T23:06:16.986Z,100674.72
2023-04-29T23:08:46.556Z,100675.41
2023-04-29T23:11:13.492Z,100674.88
2023-04-29T23:13:40.577Z,100684.88
2023-04-29T23:16:10.559Z,100680.34
2023-04-29T23:18:38.003Z,100687.91
2023-04-29T23:21:05.312Z,100682.56
2023-04-29T23:23:32.248Z,100689.13
2023-04-29T23:25:59.171Z,100685.56
2023-04-29T23:28:26.071Z,100681.59
2023-04-29T23:30:54.440Z,100687.75
2023-04-29T23:33:21.447Z,100680.38
2023-04-29T23:35:52.986Z,100678.28
2023-04-29T23:38:20.295Z,100678.16
2023-04-29T23:40:47.472Z,100685.16
2023-04-29T23:43:17.224Z,100694.63
2023-04-29T23:45:45.889Z,100694.91
2023-04-29T23:48:13.350Z,100697.25
2023-04-29T23:50:40.307Z,100693.81
2023-04-29T23:53:07.250Z,100690.22
2023-04-29T23:55:34.595Z,100697.38
2023-04-29T23:58:01.545Z,100698.34
